• Join FlightAware (Why Join?)
  • Login
  • US Flag 
05:08AM EDT


 

Airport Tracker/Info


-or-


 

Live Flight TrackerFlight Track Log ✈ UAL481 ✈ 27-Jun-2013 ✈ KALB - KORD

Flight Track Log - Related Links

Times and Time Zones

All times are in EDT time to prevent confusion due to time zone crossing. See the UAL481 flight status page for this flight to view local times or setup timezone preferences in your user account.

Time Position Orientation Groundspeed Altitude Reporting Facility
EDT Latitude Longitude Course Direction KTS MPH feet Rate Location/Type
07:29PM 42.7136 -73.9292 282° West 286 329 4,600  Level Boston Center
07:30PM 42.8087 -74.1977 284° West  Level FlightAware Approximate
07:30PM 42.7406 -73.9553 325° Northwest 318 366 6,200  Level Boston Center
07:31PM 42.8331 -74.3322 284° West  Level FlightAware Approximate
07:31PM 42.8186 -74.0281 326° Northwest 308 354 10,200  Level Boston Center
07:32PM 42.8557 -74.4673 283° West  Level FlightAware Approximate
07:32PM 42.8969 -74.0953 328° Northwest 313 360 11,300  Level Boston Center
07:33PM 42.8900 -74.5918 282° West  Level FlightAware Approximate
07:33PM 42.9658 -74.2306 305° West 362 417 14,700  Level Boston Center
07:34PM 42.9115 -74.7274 282° West  Level FlightAware Approximate
07:34PM 42.9822 -74.3728 279° West 345 397 17,800  Level Boston Center
07:35PM 42.9328 -74.8631 282° West  Level FlightAware Approximate
07:35PM 42.9947 -74.4839 279° West 359 413 18,900  Level Boston Center
07:36PM 43.0106 -74.6464 278° West 382 440 20,500 1,740 Climbing Boston Center
07:37PM 43.0261 -74.8003 278° West 398 458 22,400 1,620 Climbing Boston Center
07:38PM 43.0436 -74.9544 279° West 409 471 23,800 1,320 Climbing Boston Center
07:39PM 43.0589 -75.1142 278° West 415 478 25,100 1,200 Climbing Boston Center
07:40PM 43.0739 -75.2711 278° West 415 478 26,200 1,140 Climbing Boston Center
07:41PM 43.0883 -75.4339 277° West 426 490 27,400 1,020 Climbing Boston Center
07:42PM 43.1047 -75.5997 278° West 438 504 28,300 960 Climbing Boston Center
07:43PM 43.1208 -75.7656 278° West 443 510 29,400 1,200 Climbing Boston Center
07:44PM 43.1369 -75.9317 278° West 448 516 30,700 1,320 Climbing Boston Center
07:45PM 43.1542 -76.1119 278° West 443 510 32,100 1,260 Climbing Boston Center
07:47PM 43.1881 -76.4256 279° West 441 507 34,400 1,140 Climbing Cleveland Center
07:48PM 43.2061 -76.5897 279° West 441 507 35,600 720 Climbing Cleveland Center
07:49PM 43.2033 -76.7494 269° West 436 502 35,900 180 Climbing Cleveland Center
07:50PM 43.2022 -76.9119 270° West 436 502 36,000  Climbing Cleveland Center
07:51PM 43.1969 -77.0744 268° West 436 502 36,000  Level Cleveland Center
07:52PM 43.1936 -77.2400 268° West 441 507 36,000  Level Cleveland Center
07:53PM 43.1900 -77.4081 268° West 441 507 36,000  Level Cleveland Center
07:54PM 43.1881 -77.5733 269° West 441 507 36,000  Level Cleveland Center
07:55PM 43.1839 -77.7389 268° West 441 507 36,000  Level Cleveland Center
07:56PM 43.1775 -77.9100 267° West 441 507 36,000  Level Cleveland Center
07:57PM 43.1728 -78.0753 268° West 441 507 36,000  Level Cleveland Center
07:58PM 43.1681 -78.2433 268° West 441 507 36,000  Level Cleveland Center
07:59PM 43.1631 -78.4172 268° West 447 514 36,000  Level Cleveland Center
08:00PM 43.1556 -78.5825 266° West 447 514 36,000  Level Cleveland Center
08:01PM 43.1503 -78.7506 268° West 447 514 36,000  Level Cleveland Center
08:02PM 43.1444 -78.9217 267° West 447 514 36,000  Level Cleveland Center
08:03PM 43.1364 -79.0925 266° West 447 514 36,000  Level Cleveland Center
08:04PM 43.1167 -79.2167 258° West 450 518 36,000  Level Toronto Center
08:05PM 43.1167 -79.4000 270° West 450 518 36,000  Level Toronto Center
08:06PM 43.1000 -79.5667 262° West 450 518 36,000  Level Toronto Center
08:07PM 43.1000 -79.7500 270° West 440 506 36,000  Level Toronto Center
08:08PM 43.1000 -79.9000 270° West 440 506 36,000  Level Toronto Center
08:09PM 43.0833 -80.0833 263° West 440 506 36,000  Level Toronto Center
08:10PM 43.0833 -80.2500 270° West 450 518 36,000  Level Toronto Center
08:11PM 43.0667 -80.4167 262° West 450 518 36,100  Climbing Toronto Center
08:12PM 43.0667 -80.5833 270° West 450 518 36,000  Descending Toronto Center
08:13PM 43.0500 -80.7500 262° West 450 518 36,200 540 Climbing Toronto Center
08:14PM 43.0333 -80.9167 262° West 430 495 37,100 840 Climbing Toronto Center
08:15PM 43.0167 -81.1000 263° West 430 495 37,900 420 Climbing Toronto Center
08:16PM 43.0167 -81.2500 270° West 450 518 38,000  Climbing Toronto Center
08:17PM 43.0167 -81.4333 270° West 440 506 38,000  Level Toronto Center
08:18PM 43.0167 -81.6000 270° West 440 506 38,000  Level Toronto Center
08:19PM 43.0167 -81.7500 270° West 430 495 38,000  Level Toronto Center
08:20PM 43.0000 -81.9167 262° West 410 472 38,000  Level Toronto Center
08:21PM 43.0000 -82.0500 270° West 410 472 38,000  Level Toronto Center
08:22PM 43.0000 -82.2333 270° West 420 483 38,000  Level Toronto Center
08:23PM 43.0000 -82.3667 270° West 420 483 38,000 -120 Level Toronto Center
08:24PM 43.0000 -82.5500 270° West 420 483 37,800 -600 Descending Toronto Center
08:25PM 42.9833 -82.7167 262° West 420 483 36,900 -960 Descending Toronto Center
08:26PM 42.9833 -82.8500 270° West 420 483 36,000 -960 Descending Toronto Center
08:27PM 42.9667 -83.0333 263° West 430 495 35,000 -1,020 Descending Toronto Center
08:28PM 42.9667 -83.1833 270° West 430 495 34,000 -1,080 Descending Toronto Center
08:29PM 42.9500 -83.3667 263° West 440 506 32,900 -960 Descending Toronto Center
08:30PM 42.9500 -83.5333 270° West 450 518 32,100 -480 Descending Toronto Center
08:31PM 42.9167 -83.7167 256° West 450 518 32,000 -60 Descending Toronto Center
08:32PM 42.9167 -83.8667 270° West 450 518 32,000  Level Toronto Center
08:33PM 42.9167 -84.0500 270° West 440 506 32,000  Level Toronto Center
08:35PM 42.9047 -84.2894 266° West 444 511 32,000  Level Chicago Center
08:36PM 42.8914 -84.4881 265° West 442 509 32,000  Level Chicago Center
08:37PM 42.8781 -84.6522 264° West 438 504 32,000  Level Chicago Center
08:38PM 42.8603 -84.8158 262° West 437 503 32,000  Level Chicago Center
08:39PM 42.8436 -84.9750 262° West 430 495 32,000 -60 Level Chicago Center
08:40PM 42.8264 -85.1333 262° West 425 489 31,900 -840 Descending Chicago Center
08:41PM 42.8100 -85.2892 262° West 419 482 30,300 -1,800 Descending Chicago Center
08:43PM 42.7754 -85.5205 254° West  Level FlightAware Approximate
08:44PM 42.7353 -85.7792 254° West 406 467 24,500  Level Chicago Center
08:45PM 42.7089 -85.9231 256° West 394 453 22,700 -1,500 Descending Chicago Center
08:47PM 42.6666 -86.1253 253° West  Level FlightAware Approximate
08:47PM 42.6597 -86.1956 253° West 365 420 20,000  Level Chicago Center
08:48PM 42.6347 -86.3275 256° West 360 414 20,000  Level Chicago Center
08:49PM 42.6094 -86.4589 255° West 359 413 20,000 -1,080 Level Chicago Center
08:50PM 42.5808 -86.6164 256° West 357 411 17,800 -1,860 Descending Chicago Center
08:51PM 42.5575 -86.7431 256° West 349 402 16,200 -2,460 Descending Chicago Center
08:52PM 42.5258 -86.8561 249° West 327 376 12,800 -2,760 Descending Chicago Center
08:53PM 42.4931 -86.9717 249° West 329 379 10,600 -1,380 Descending Chicago Center
08:54PM 42.4619 -87.0803 249° West 313 360 10,000 -300 Descending Chicago Center
08:55PM 42.4356 -87.1800 250° West 287 330 10,000  Level Chicago Center
08:56PM 42.3978 -87.2956 246° West 284 327 10,000  Level Chicago Center
08:57PM 42.3383 -87.3731 224° Southwest 296 341 10,000  Level Chicago Center
08:58PM 42.2847 -87.4589 230° Southwest 291 335 10,000 -540 Level Chicago Center
09:00PM 42.2569 -87.5561 249° West 280 322 8,900 -1,260 Descending Chicago Center
09:01PM 42.2183 -87.6453 240° Southwest 292 336 7,500 -960 Descending Chicago Center
09:02PM 42.1606 -87.7103 220° Southwest 274 315 7,000 -300 Descending Chicago Center
09:03PM 42.1008 -87.7800 221° Southwest 242 278 7,000  Level Chicago Center
09:04PM 42.0711 -87.8531 241° Southwest 225 259 7,000  Level Chicago Center
09:04PM 42.0667 -87.9000 263° West 230 265 7,000  Level Chicago TRACON
09:05PM 42.0667 -88.0000 270° West 222 255 7,000  Level Chicago TRACON
09:06PM 42.0667 -88.0667 270° West 220 253 7,000 -540 Level Chicago TRACON
09:07PM 42.0667 -88.1500 270° West 216 249 6,000 -1,020 Descending Chicago TRACON
09:08PM 42.0714 -88.1992 277° West 217 250 5,400 -720 Descending Chicago Center
09:09PM 42.0517 -88.2761 251° West 238 274 4,900 -240 Descending Chicago Center
09:10PM 41.9853 -88.2717 177° South 248 285 5,000 -240 Climbing Chicago Center
09:11PM 41.9672 -88.1906 107° East 232 267 4,500 -540 Descending Chicago Center